Acacia Lake, Texas
Current Conditions -  °F | °C
As of 11:53 PM on Monday 20 Oct 2014 (Local Time) from KBRO Reporting Station
Few Clouds Few Clouds  
Wind Chill: 75°   Ceiling: Unl
Heat Index: 75°   Visibility: 10mi
Dew Point: 69°   Wind: 3mph
Humidity: 82%   Direction: 60°ENE
Pressure: 29.94"   Gusts: NA
Location:  26.0002°N, 97.5729°W
Report Text: KBRO 210453Z 06003KT 10SM FEW034 24/21 A2994 RMK AO2 SLP136 T02390206
Loading
Personal Weather Stations






























Interactive Weather Map New forecast layout! Learn more

10-Day Weather Forecast

Advertisements
Track Severe Weather on mobile